Impacts TAF Board
For situational awareness. Not to be used for flight planning purposes.
IDs:

KDCA - Washington/National, VA, US

Issued at 1458 UTC 10 Aug 2022
Updated at 1503 UTC 10 Aug 2022
Potential Impact None Slight Moderate High
Time1452Z 10/16Z 10/17Z 10/18Z 10/19Z 10/20Z 10/21Z 10/22Z 10/23Z 11/00Z 11/01Z 11/02Z 11/03Z 11/04Z>>
Type OBS PRVL PRVL PRVL PRVL PRVL PRVL PRVL PRVL PRVL PRVL PRVL PRVL PRVL
VIS 10 >6 >6 >6 >6 >6 6 6 6 6 6 6 6 >6
CIG 130 -- -- -- -- -- 40 40 40 40 40 40 40 45
Cover BKN SCT SCT SCT SCT SCT BKN BKN BKN BKN BKN BKN BKN BKN
FltCat VFR VFR VFR VFR VFR VFR VFR VFR VFR VFR VFR VFR VFR VFR
WX -- -- -- -- -- -- -SHRA VCTS -SHRA VCTS -SHRA VCTS -SHRA VCTS -SHRA VCTS -SHRA VCTS -SHRA VCTS --
WDir 20 340 340 220 220 220 250 250 250 250 250 250 250 VRB
WSpd 8 4 4 4 4 4 4 4 4 4 4 4 4 3
WGst -- -- -- -- -- -- -- -- -- -- -- -- -- --
WSHgt -- -- -- -- -- -- -- -- -- -- -- -- -- --
WSDir -- -- -- -- -- -- -- -- -- -- -- -- -- --
WSSpd -- -- -- -- -- -- -- -- -- -- -- -- -- --
Raw TAF
KDCA 101458Z 1015/1118 34004KT P6SM SCT040 SCT100
  FM101800 22004KT P6SM SCT050 SCT200
  FM102100 25004KT 6SM -SHRA VCTS BKN040CB BKN130
  FM110400 VRB03KT P6SM BKN045 BKN130
  FM110700 VRB03KT 6SM BR BKN020 BKN130
  FM111200 30004KT P6SM SCT020 BKN050 BKN130
  FM111400 32009KT P6SM SCT035


Raw METAR
KDCA 101452Z 02008KT 10SM SCT041 BKN130 32/23 A3008 RMK AO2 SLP187 T03220233 51006
KDCA 101352Z 09003KT 10SM FEW030 SCT120 31/23 A3008 RMK AO2 SLP185 T03060228
KDCA 101252Z 35005KT 10SM SCT120 29/23 A3008 RMK AO2 SLP185 T02940233

METAR Board
Radar Display
Forecast Discussion
For situational awareness. Not to be used for flight planning purposes.